Botkins, Ohio
Current Conditions -  °F | °C
As of 8:33 PM on Sunday 23 Nov 2014 (Local Time) from KAXV Reporting Station
Moderate Rain Moderate Rain  
Wind Chill: 54°   Ceiling: 1300
Heat Index: 54°   Visibility: 10mi
Dew Point: 52°   Wind: 22mph
Humidity: 94%   Direction: 140°SE
Pressure: 29.4"   Gusts: 31mph
Location:  40.47°N, 84.18°W
Report Text: KAXV 240133Z AUTO 14019G27KT 10SM RA OVC013 12/11 A2940 RMK AO2
Loading
Personal Weather Stations






























Interactive Weather Map New forecast layout! Learn more

10-Day Weather Forecast

Advertisements
Track Severe Weather on mobile